Stations météo

Publicité
Toulon/Ile du Levant, France (7678): Température de l'air & dewpoint: 13.10.2017 21:00:00 - 19.10.2017 21:00:00 (CEST)Toulon/Ile du Levant, France (7678): Vitesse du vent & gusts: 13.10.2017 21:00:00 - 19.10.2017 21:00:00 (CEST)Toulon/Ile du Levant, France (7678): Direction du vent: 13.10.2017 21:00:00 - 19.10.2017 21:00:00 (CEST)Toulon/Ile du Levant, France (7678): reduced air pressure: 13.10.2017 21:00:00 - 19.10.2017 21:00:00 (CEST)Toulon/Ile du Levant, France (7678): Quantités de précipitations: 13.10.2017 21:00:00 - 19.10.2017 21:00:00 (CEST)
Date & Time tt [°C] td [°C] ff [km/h] ff [knt] fx [km/h] fx [knt] dd ppp [hPa] rr [mm]
19.10.2017 21:00:00 18,2 16,2 39 21 65 35 E 1014,4 0,0
19.10.2017 20:00:00 18,2 16,5 39 21 65 35 E 1014,3 -
19.10.2017 19:00:00 18,2 16,4 46 25 68 37 E 1013,3 0,0
19.10.2017 18:00:00 18,5 16,3 48 26 68 37 E 1013,5 0,0
19.10.2017 17:00:00 19,1 16,5 46 25 68 37 E 1013,8 -
19.10.2017 16:00:00 19,3 16,5 50 27 65 35 E 1013,8 0,0
19.10.2017 15:00:00 19,7 16,9 44 24 65 35 E 1014,1 0,0
19.10.2017 14:00:00 20,4 17,2 46 25 63 34 E 1014,4 -
19.10.2017 13:00:00 20,0 16,8 48 26 68 37 E 1015,0 0,0
19.10.2017 12:00:00 19,8 17,0 44 24 65 35 E 1015,8 0,0
19.10.2017 11:00:00 19,1 16,9 44 24 65 35 E 1015,5 -
19.10.2017 10:00:00 18,8 17,1 42 23 61 33 E 1015,3 0,0
19.10.2017 09:00:00 18,3 17,0 44 24 61 33 E 1015,3 0,0
19.10.2017 08:00:00 18,2 16,9 42 23 57 31 E 1015,0 -
19.10.2017 07:00:00 18,3 17,1 42 23 59 32 E 1015,3 0,0
19.10.2017 06:00:00 18,4 17,2 41 22 55 30 E 1015,3 0,0
19.10.2017 05:00:00 18,4 17,2 41 22 55 30 E 1015,2 -
19.10.2017 04:00:00 18,4 17,1 42 23 55 30 E 1015,2 0,0
19.10.2017 03:00:00 18,4 16,7 41 22 54 29 E 1015,8 0,0
19.10.2017 02:00:00 18,4 16,4 37 20 50 27 E 1016,1 -
19.10.2017 01:00:00 18,0 16,2 31 17 46 25 E 1016,7 0,0
19.10.2017 00:00:00 18,0 16,3 29 16 42 23 E 1016,9 0,0
18.10.2017 23:00:00 17,4 15,2 26 14 39 21 E 1017,1 -
18.10.2017 22:00:00 17,3 15,1 28 15 37 20 E 1017,2 0,0
18.10.2017 21:00:00 17,4 15,4 22 12 34 18 E 1017,2 0,0
18.10.2017 20:00:00 17,3 15,3 21 11 28 15 E 1017,1 -
18.10.2017 19:00:00 17,3 14,9 15 8 28 15 E 1017,2 0,0
18.10.2017 18:00:00 18,0 14,9 16 9 31 17 E 1016,9 0,0
18.10.2017 17:00:00 19,2 15,1 22 12 37 20 E 1016,9 -
18.10.2017 16:00:00 19,4 14,4 21 11 37 20 E 1017,4 0,0
18.10.2017 15:00:00 20,3 15,1 26 14 39 21 E 1017,6 0,0
18.10.2017 14:00:00 19,6 14,6 29 16 39 21 E 1018,3 -
18.10.2017 13:00:00 19,7 15,3 26 14 37 20 E 1019,1 0,0
18.10.2017 12:00:00 19,0 15,1 28 15 37 20 E 1019,6 0,0
18.10.2017 11:00:00 19,0 15,5 24 13 39 21 E 1019,6 -
18.10.2017 10:00:00 17,7 15,3 24 13 31 17 E 1019,9 0,0
18.10.2017 09:00:00 16,1 15,1 13 7 16 9 ENE 1020,1 0,0
18.10.2017 08:00:00 15,1 14,1 9 5 21 11 ENE 1020,1 -
18.10.2017 07:00:00 15,2 14,2 15 8 22 12 ENE 1020,0 0,0
18.10.2017 06:00:00 15,3 13,8 15 8 21 11 E 1020,4 0,0
18.10.2017 05:00:00 15,2 13,9 15 8 16 9 E 1020,7 -
18.10.2017 04:00:00 15,5 13,5 9 5 13 7 ENE 1021,1 0,0
18.10.2017 03:00:00 15,9 13,6 8 4 11 6 NE 1021,6 0,0
18.10.2017 02:00:00 16,1 13,9 5 3 8 4 NE 1022,0 -
18.10.2017 01:00:00 15,9 13,7 0 0 5 3 N 1022,2 0,0
18.10.2017 00:00:00 16,0 14,2 4 2 8 4 SSE 1022,5 0,0
17.10.2017 23:00:00 15,8 14,5 5 3 9 5 ESE 1022,7 -
17.10.2017 22:00:00 15,7 14,6 5 3 8 4 SE 1022,6 0,0
17.10.2017 21:00:00 16,1 15,0 5 3 11 6 SSE 1022,6 0,0
17.10.2017 20:00:00 16,2 14,9 9 5 13 7 SE 1022,7 -
17.10.2017 19:00:00 16,4 14,6 9 5 13 7 SE 1022,5 0,0
17.10.2017 18:00:00 18,1 14,8 5 3 11 6 SE 1022,7 0,0
17.10.2017 17:00:00 18,8 14,9 8 4 15 8 SE 1023,1 -
17.10.2017 16:00:00 18,9 14,8 8 4 15 8 SSE 1023,5 0,0
17.10.2017 15:00:00 19,6 15,5 9 5 18 10 SE 1023,9 0,0
17.10.2017 14:00:00 19,6 16,1 9 5 21 11 SE 1024,6 -
17.10.2017 13:00:00 19,2 15,9 11 6 21 11 ESE 1025,2 0,0
17.10.2017 12:00:00 19,2 16,1 13 7 22 12 E 1025,2 0,0
17.10.2017 11:00:00 19,3 15,6 8 4 16 9 E 1025,6 -
17.10.2017 10:00:00 17,0 15,3 8 4 13 7 E 1026,0 0,0
17.10.2017 09:00:00 16,2 15,4 5 3 11 6 ENE 1025,8 0,0
17.10.2017 08:00:00 16,1 15,1 5 3 11 6 NNE 1025,6 -
17.10.2017 07:00:00 16,0 14,7 5 3 11 6 NE 1025,6 0,0
17.10.2017 06:00:00 16,0 14,9 5 3 9 5 NNE 1025,6 0,0
17.10.2017 05:00:00 16,1 15,1 5 3 15 8 NE 1025,6 -
17.10.2017 04:00:00 16,4 15,6 5 3 11 6 NNE 1026,0 0,0
17.10.2017 03:00:00 16,6 16,0 5 3 11 6 NNE 1026,5 0,0
17.10.2017 02:00:00 16,2 15,2 5 3 8 4 NNW 1026,6 -
17.10.2017 01:00:00 16,5 15,5 2 1 16 9 WNW 1026,9 0,0
17.10.2017 00:00:00 16,2 15,4 11 6 16 9 WNW 1027,0 0,0
16.10.2017 23:00:00 16,8 15,8 15 8 22 12 WNW 1027,1 -
16.10.2017 22:00:00 16,8 15,8 15 8 24 13 W 1026,9 0,0
16.10.2017 21:00:00 16,8 15,3 18 10 24 13 W 1026,7 0,0
16.10.2017 20:00:00 17,1 15,4 18 10 26 14 WSW 1027,0 -
16.10.2017 19:00:00 17,4 15,0 16 9 21 11 W 1026,8 0,0
16.10.2017 18:00:00 19,6 15,5 15 8 21 11 WSW 1026,5 0,0
16.10.2017 17:00:00 20,0 15,4 15 8 24 13 W 1026,7 -
16.10.2017 16:00:00 20,3 15,5 16 9 24 13 W 1027,0 0,0
16.10.2017 15:00:00 20,0 15,0 13 7 21 11 W 1027,4 0,0
16.10.2017 14:00:00 20,2 15,4 13 7 21 11 W 1028,1 -
16.10.2017 13:00:00 20,4 15,4 5 3 15 8 SE 1028,6 0,0
16.10.2017 12:00:00 19,0 14,7 5 3 13 7 NW 1028,8 0,0
16.10.2017 11:00:00 18,7 14,8 5 3 11 6 NNW 1029,0 -
16.10.2017 10:00:00 17,9 15,3 4 2 11 6 ESE 1028,9 0,0
16.10.2017 09:00:00 16,8 15,5 5 3 11 6 NNE 1028,6 0,0
16.10.2017 08:00:00 16,4 15,6 4 2 13 7 NNE 1028,0 -
16.10.2017 07:00:00 16,5 15,9 8 4 13 7 ENE 1027,9 0,0
16.10.2017 06:00:00 16,6 16,1 5 3 13 7 ESE 1027,7 0,0
16.10.2017 05:00:00 16,3 15,8 4 2 9 5 E 1027,4 -
16.10.2017 04:00:00 16,6 16,1 2 1 8 4 NW 1027,5 0,0
16.10.2017 03:00:00 17,0 16,5 4 2 9 5 W 1027,9 0,0
16.10.2017 02:00:00 16,9 16,4 5 3 9 5 WNW 1028,1 -
16.10.2017 01:00:00 17,3 16,7 9 5 18 10 W 1028,3 0,0
16.10.2017 00:00:00 17,3 16,3 15 8 26 14 W 1028,4 0,2
15.10.2017 23:00:00 17,6 16,6 18 10 26 14 W 1028,3 -
15.10.2017 22:00:00 17,3 16,2 16 9 24 13 W 1028,1 0,0
15.10.2017 21:00:00 17,5 16,0 18 10 24 13 WSW 1028,0 0,0
15.10.2017 20:00:00 17,4 15,6 16 9 26 14 WSW 1027,9 -
15.10.2017 19:00:00 17,9 15,5 16 9 24 13 WSW 1027,5 0,0
15.10.2017 18:00:00 19,9 15,9 15 8 24 13 SW 1027,3 0,0
15.10.2017 17:00:00 21,1 15,6 13 7 22 12 SW 1027,5 -
15.10.2017 16:00:00 21,8 15,9 11 6 21 11 W 1027,7 0,0
15.10.2017 15:00:00 20,7 15,7 15 8 21 11 W 1028,3 0,0
15.10.2017 14:00:00 20,4 15,6 13 7 18 10 W 1028,9 -
15.10.2017 13:00:00 20,2 15,4 9 5 15 8 W 1029,7 0,0
15.10.2017 12:00:00 19,2 15,3 4 2 9 5 W 1030,0 0,0
15.10.2017 11:00:00 19,2 16,4 2 1 5 3 W 1029,9 -
15.10.2017 10:00:00 18,7 16,1 0 0 11 6 N 1029,6 0,0
15.10.2017 09:00:00 17,3 15,8 2 1 4 2 WSW 1029,4 0,0
15.10.2017 08:00:00 16,8 15,5 4 2 9 5 N 1028,9 -
15.10.2017 07:00:00 16,7 15,7 8 4 9 5 N 1028,6 0,0
15.10.2017 06:00:00 17,0 16,2 4 2 11 6 N 1028,8 0,0
15.10.2017 05:00:00 16,9 16,3 8 4 13 7 NNE 1028,7 -
15.10.2017 04:00:00 17,3 16,7 8 4 11 6 NE 1028,7 0,0
15.10.2017 03:00:00 17,5 16,7 5 3 8 4 ENE 1029,0 0,0
15.10.2017 02:00:00 17,4 16,3 0 0 8 4 N 1028,9 -
15.10.2017 01:00:00 17,3 16,2 8 4 11 6 SW 1028,8 0,0
15.10.2017 00:00:00 17,8 16,5 9 5 18 10 W 1028,6 0,0
14.10.2017 23:00:00 17,7 16,2 13 7 18 10 W 1028,3 -
14.10.2017 22:00:00 17,7 16,0 15 8 21 11 W 1028,0 0,0
14.10.2017 21:00:00 17,9 16,2 16 9 22 12 W 1027,8 0,0
14.10.2017 20:00:00 18,1 16,3 16 9 22 12 WSW 1027,8 -
14.10.2017 19:00:00 18,3 16,1 11 6 18 10 SW 1027,5 0,0
14.10.2017 18:00:00 20,0 16,4 11 6 21 11 SW 1027,3 0,0
14.10.2017 17:00:00 21,2 15,9 11 6 21 11 SW 1027,2 -
14.10.2017 16:00:00 21,4 15,9 9 5 16 9 SW 1027,3 0,0
14.10.2017 15:00:00 21,1 16,3 9 5 15 8 SSE 1027,6 0,0
14.10.2017 14:00:00 20,1 15,7 5 3 13 7 ESE 1028,2 -
14.10.2017 13:00:00 20,3 15,9 5 3 15 8 ESE 1028,6 0,0
14.10.2017 12:00:00 19,9 14,9 8 4 13 7 E 1028,9 0,0
14.10.2017 11:00:00 19,8 15,4 8 4 13 7 E 1028,9 -
14.10.2017 10:00:00 18,8 15,5 8 4 13 7 E 1028,3 0,0
14.10.2017 09:00:00 17,9 15,9 8 4 13 7 ENE 1027,8 0,0
14.10.2017 08:00:00 17,5 15,8 8 4 15 8 ENE 1027,3 -
14.10.2017 07:00:00 17,9 16,8 11 6 16 9 E 1027,0 0,0
14.10.2017 06:00:00 17,6 16,3 4 2 8 4 W 1026,9 0,0
14.10.2017 05:00:00 17,7 16,2 2 1 8 4 W 1026,8 -
14.10.2017 04:00:00 17,6 16,5 8 4 11 6 W 1026,7 0,0
14.10.2017 03:00:00 17,8 16,7 8 4 15 8 WNW 1026,9 0,0
14.10.2017 02:00:00 18,3 16,3 9 5 18 10 W 1027,0 -
14.10.2017 01:00:00 18,4 15,5 13 7 18 10 W 1026,7 0,0
14.10.2017 00:00:00 18,6 16,7 13 7 18 10 W 1026,9 0,0
13.10.2017 23:00:00 18,6 16,9 9 5 15 8 W 1027,0 -
13.10.2017 22:00:00 18,5 16,8 8 4 13 7 WSW 1026,8 0,0
13.10.2017 21:00:00 18,5 16,7 8 4 15 8 WSW 1026,6 0,0

tt = Température de l'air
td = dewpoint
ff = Vitesse du vent
fx = gusts
dd = Direction du vent
ppp = reduced air pressure
rr = Quantités de précipitations

stations d'obs. à proximité